Accueil
METAR-TAF:

METAR-TAF

Aéroports :

Base aérienne 125 Istres-Le Tubé

Istres, France

latitude: 43-31N, longitude: 004-56E, altitude: 23 m

Observation

Le bulletin a été fait il y a 44 minutes, à 20:30 UTC
Vent 2 kt de sud/sud-ouest
Température 24°C
Humidité 89%
Pression 1015 hPa
Visibilité 10 km ou plus
pas de nuages en-dessous de 1500 mètres et pas de cumulonimbus.

METAR: LFMI 162030Z AUTO 21002KT CAVOK 24/22 Q1015 NOSIG

Heure: 23:14 (21:14 UTC)

Prévision

Le bulletin a été fait il y a 1 heure et 14 minutes, à 20:00 UTC
Prévision valable du 16 à 21 UTC au 17 à 21 UTC
Vent 2 kt de direction variable
Visibilité 10 km ou plus
pas de nuages en-dessous de 1500 mètres et pas de cumulonimbus.
Evoluant progressivement
du 17 à 10 UTC au 17 à 12 UTC
Vent 8 kt de sud-ouest
Evoluant progressivement
du 17 à 15 UTC au 17 à 17 UTC
Vent 12 kt de nord/nord-ouest

TAF: LFMI 162000Z 1621/1721 VRB02KT CAVOK BECMG 1710/1712 22008KT BECMG 1715/1717 33012KT

Observations et prévisions météorologiques de plus de 4000 aéroports (messages METAR et TAF).

Les stations disponibles sont représentées par des disques jaunes et rouges sur la carte.

Passer la souris dessus pour voir le nom de la station.

Cliquer dessus pour voir les observations et prévisions météorologiques.

Pour changer de carte: cliquez sur les boutons verts avec une croix noire pour zoomer, sur le bouton vert avec un tiret pour effectuer un zoom arrière, ou sur les flèches vertes pour les cartes adjacentes.


METAR-TAF: